sensor_id;sensor_type;location;lat;lon;timestamp;pressure;altitude;pressure_sealevel;temperature;humidity
25510;BME280;13413;52.336;21.200;2023-02-17T00:05:44;100757.30;;;7.37;63.20
25510;BME280;13413;52.336;21.200;2023-02-17T00:08:39;100754.42;;;7.39;63.09
25510;BME280;13413;52.336;21.200;2023-02-17T00:11:32;100751.65;;;7.43;63.09
25510;BME280;13413;52.336;21.200;2023-02-17T00:14:27;100749.14;;;7.47;63.01
25510;BME280;13413;52.336;21.200;2023-02-17T00:17:20;100747.90;;;7.51;63.00
25510;BME280;13413;52.336;21.200;2023-02-17T00:20:15;100748.72;;;7.55;62.99
25510;BME280;13413;52.336;21.200;2023-02-17T00:23:08;100745.04;;;7.57;63.04
25510;BME280;13413;52.336;21.200;2023-02-17T00:26:05;100750.67;;;7.59;62.99
25510;BME280;13413;52.336;21.200;2023-02-17T00:28:58;100744.59;;;7.56;63.02
25510;BME280;13413;52.336;21.200;2023-02-17T00:31:54;100745.44;;;7.58;62.99
25510;BME280;13413;52.336;21.200;2023-02-17T00:35:08;100743.40;;;7.66;62.95
25510;BME280;13413;52.336;21.200;2023-02-17T00:38:00;100738.67;;;7.68;62.89
25510;BME280;13413;52.336;21.200;2023-02-17T00:46:52;100734.09;;;7.77;62.81
25510;BME280;13413;52.336;21.200;2023-02-17T00:49:45;100735.02;;;7.77;62.71
25510;BME280;13413;52.336;21.200;2023-02-17T00:52:40;100731.05;;;7.79;62.71
25510;BME280;13413;52.336;21.200;2023-02-17T00:55:33;100729.47;;;7.78;62.64
25510;BME280;13413;52.336;21.200;2023-02-17T00:58:28;100722.79;;;7.76;62.69
25510;BME280;13413;52.336;21.200;2023-02-17T01:01:21;100719.52;;;7.75;62.66
25510;BME280;13413;52.336;21.200;2023-02-17T01:04:15;100715.94;;;7.77;62.63
25510;BME280;13413;52.336;21.200;2023-02-17T01:07:09;100718.32;;;7.80;62.67
25510;BME280;13413;52.336;21.200;2023-02-17T01:10:04;100716.30;;;7.81;62.69
25510;BME280;13413;52.336;21.200;2023-02-17T01:12:58;100711.98;;;7.78;62.80
25510;BME280;13413;52.336;21.200;2023-02-17T01:15:53;100704.86;;;7.77;62.67
25510;BME280;13413;52.336;21.200;2023-02-17T01:18:46;100705.42;;;7.79;62.73
25510;BME280;13413;52.336;21.200;2023-02-17T01:21:40;100697.32;;;7.80;62.69
25510;BME280;13413;52.336;21.200;2023-02-17T01:24:33;100698.73;;;7.82;62.64
25510;BME280;13413;52.336;21.200;2023-02-17T01:27:27;100698.52;;;7.84;62.62
25510;BME280;13413;52.336;21.200;2023-02-17T01:30:21;100697.14;;;7.86;62.64
25510;BME280;13413;52.336;21.200;2023-02-17T01:33:16;100690.89;;;7.87;62.67
25510;BME280;13413;52.336;21.200;2023-02-17T01:36:11;100692.78;;;7.89;62.69
25510;BME280;13413;52.336;21.200;2023-02-17T01:39:05;100684.52;;;7.90;62.56
25510;BME280;13413;52.336;21.200;2023-02-17T01:41:59;100680.08;;;7.91;62.56
25510;BME280;13413;52.336;21.200;2023-02-17T01:48:25;100677.28;;;7.98;62.61
25510;BME280;13413;52.336;21.200;2023-02-17T01:51:25;100673.37;;;8.02;62.59
25510;BME280;13413;52.336;21.200;2023-02-17T01:54:23;100670.55;;;8.04;62.53
25510;BME280;13413;52.336;21.200;2023-02-17T01:57:21;100669.52;;;8.02;62.36
25510;BME280;13413;52.336;21.200;2023-02-17T02:00:17;100673.16;;;8.02;62.45
25510;BME280;13413;52.336;21.200;2023-02-17T02:03:13;100673.91;;;8.04;62.42
25510;BME280;13413;52.336;21.200;2023-02-17T02:06:10;100677.59;;;8.05;62.44
25510;BME280;13413;52.336;21.200;2023-02-17T02:09:08;100668.98;;;8.10;62.39
25510;BME280;13413;52.336;21.200;2023-02-17T02:12:13;100662.36;;;8.12;62.42
25510;BME280;13413;52.336;21.200;2023-02-17T02:15:13;100658.72;;;8.11;62.44
25510;BME280;13413;52.336;21.200;2023-02-17T02:18:43;100656.30;;;8.11;62.31
25510;BME280;13413;52.336;21.200;2023-02-17T02:22:00;100660.76;;;8.06;62.58
25510;BME280;13413;52.336;21.200;2023-02-17T02:25:07;100659.69;;;8.05;62.49
25510;BME280;13413;52.336;21.200;2023-02-17T02:31:26;100649.62;;;8.09;62.54
25510;BME280;13413;52.336;21.200;2023-02-17T02:34:23;100643.92;;;8.07;62.49
25510;BME280;13413;52.336;21.200;2023-02-17T02:37:24;100643.64;;;8.05;62.55
25510;BME280;13413;52.336;21.200;2023-02-17T02:40:33;100634.89;;;8.05;62.53
25510;BME280;13413;52.336;21.200;2023-02-17T02:43:29;100622.27;;;8.04;62.61
25510;BME280;13413;52.336;21.200;2023-02-17T02:46:23;100620.16;;;8.00;62.64
25510;BME280;13413;52.336;21.200;2023-02-17T02:49:18;100641.91;;;7.99;62.69
25510;BME280;13413;52.336;21.200;2023-02-17T02:52:17;100649.01;;;7.99;62.73
25510;BME280;13413;52.336;21.200;2023-02-17T02:55:17;100648.06;;;7.96;62.90
25510;BME280;13413;52.336;21.200;2023-02-17T02:58:19;100640.36;;;7.96;62.98
25510;BME280;13413;52.336;21.200;2023-02-17T03:06:36;100633.55;;;7.99;63.02
25510;BME280;13413;52.336;21.200;2023-02-17T03:09:32;100636.07;;;8.00;63.01
25510;BME280;13413;52.336;21.200;2023-02-17T03:12:25;100637.28;;;7.98;63.03
25510;BME280;13413;52.336;21.200;2023-02-17T03:18:18;100641.05;;;7.96;63.17
25510;BME280;13413;52.336;21.200;2023-02-17T03:21:15;100645.67;;;7.97;63.32
25510;BME280;13413;52.336;21.200;2023-02-17T03:24:10;100646.48;;;7.98;63.28
25510;BME280;13413;52.336;21.200;2023-02-17T03:27:05;100639.51;;;7.97;63.45
25510;BME280;13413;52.336;21.200;2023-02-17T03:29:58;100635.55;;;8.00;63.49
25510;BME280;13413;52.336;21.200;2023-02-17T03:32:52;100632.84;;;8.02;63.59
25510;BME280;13413;52.336;21.200;2023-02-17T03:35:47;100630.82;;;8.00;63.72
25510;BME280;13413;52.336;21.200;2023-02-17T03:38:40;100628.73;;;7.99;63.75
25510;BME280;13413;52.336;21.200;2023-02-17T03:41:34;100628.25;;;7.97;63.78
25510;BME280;13413;52.336;21.200;2023-02-17T03:47:22;100631.90;;;7.99;64.00
25510;BME280;13413;52.336;21.200;2023-02-17T03:50:17;100633.52;;;7.97;64.24
25510;BME280;13413;52.336;21.200;2023-02-17T03:53:11;100633.94;;;7.95;64.17
25510;BME280;13413;52.336;21.200;2023-02-17T03:56:05;100636.02;;;7.95;64.30
25510;BME280;13413;52.336;21.200;2023-02-17T03:58:59;100637.06;;;7.97;64.36
25510;BME280;13413;52.336;21.200;2023-02-17T04:01:52;100637.11;;;7.98;64.35
25510;BME280;13413;52.336;21.200;2023-02-17T04:04:47;100638.68;;;8.00;64.42
25510;BME280;13413;52.336;21.200;2023-02-17T04:07:40;100640.05;;;8.04;64.37
25510;BME280;13413;52.336;21.200;2023-02-17T04:10:35;100628.37;;;8.03;64.66
25510;BME280;13413;52.336;21.200;2023-02-17T04:13:29;100615.95;;;7.98;64.72
25510;BME280;13413;52.336;21.200;2023-02-17T04:16:23;100623.84;;;7.99;64.68
25510;BME280;13413;52.336;21.200;2023-02-17T04:19:18;100623.08;;;8.03;64.71
25510;BME280;13413;52.336;21.200;2023-02-17T04:22:11;100615.33;;;8.04;64.79
25510;BME280;13413;52.336;21.200;2023-02-17T04:25:06;100614.19;;;8.04;64.87
25510;BME280;13413;52.336;21.200;2023-02-17T04:28:00;100611.40;;;8.04;64.93
25510;BME280;13413;52.336;21.200;2023-02-17T04:30:58;100612.27;;;8.05;64.91
25510;BME280;13413;52.336;21.200;2023-02-17T04:33:51;100611.77;;;8.05;64.81
25510;BME280;13413;52.336;21.200;2023-02-17T04:36:45;100609.34;;;8.03;64.97
25510;BME280;13413;52.336;21.200;2023-02-17T04:39:40;100604.51;;;8.04;64.99
25510;BME280;13413;52.336;21.200;2023-02-17T04:42:33;100605.92;;;8.02;65.13
25510;BME280;13413;52.336;21.200;2023-02-17T04:45:28;100601.58;;;8.00;65.31
25510;BME280;13413;52.336;21.200;2023-02-17T04:48:22;100598.13;;;7.96;65.27
25510;BME280;13413;52.336;21.200;2023-02-17T04:51:15;100592.21;;;8.00;65.25
25510;BME280;13413;52.336;21.200;2023-02-17T04:54:09;100587.22;;;8.02;65.36
25510;BME280;13413;52.336;21.200;2023-02-17T04:57:04;100583.71;;;8.06;65.27
25510;BME280;13413;52.336;21.200;2023-02-17T04:59:57;100590.02;;;8.06;65.38
25510;BME280;13413;52.336;21.200;2023-02-17T05:02:52;100588.27;;;8.06;65.42
25510;BME280;13413;52.336;21.200;2023-02-17T05:05:45;100585.61;;;8.08;65.62
25510;BME280;13413;52.336;21.200;2023-02-17T05:08:40;100587.01;;;8.08;65.64
25510;BME280;13413;52.336;21.200;2023-02-17T05:11:34;100583.55;;;8.09;65.74
25510;BME280;13413;52.336;21.200;2023-02-17T05:14:28;100583.84;;;8.09;65.78
25510;BME280;13413;52.336;21.200;2023-02-17T05:17:21;100578.79;;;8.09;65.87
25510;BME280;13413;52.336;21.200;2023-02-17T05:26:30;100574.84;;;8.11;66.04
25510;BME280;13413;52.336;21.200;2023-02-17T05:29:24;100558.77;;;8.12;66.13
25510;BME280;13413;52.336;21.200;2023-02-17T05:32:18;100553.23;;;8.09;66.39
25510;BME280;13413;52.336;21.200;2023-02-17T05:35:11;100561.84;;;8.06;66.37
25510;BME280;13413;52.336;21.200;2023-02-17T05:38:06;100561.84;;;8.09;66.40
25510;BME280;13413;52.336;21.200;2023-02-17T05:41:00;100562.14;;;8.10;66.39
25510;BME280;13413;52.336;21.200;2023-02-17T05:43:53;100555.05;;;8.09;66.47
25510;BME280;13413;52.336;21.200;2023-02-17T05:46:47;100556.66;;;8.08;66.87
25510;BME280;13413;52.336;21.200;2023-02-17T05:49:42;100560.06;;;8.10;66.77
25510;BME280;13413;52.336;21.200;2023-02-17T05:52:36;100558.58;;;8.14;66.71
25510;BME280;13413;52.336;21.200;2023-02-17T05:55:30;100559.98;;;8.16;66.80
25510;BME280;13413;52.336;21.200;2023-02-17T05:58:24;100554.34;;;8.17;66.78
25510;BME280;13413;52.336;21.200;2023-02-17T06:01:18;100544.15;;;8.15;67.01
25510;BME280;13413;52.336;21.200;2023-02-17T06:04:11;100543.77;;;8.19;67.00
25510;BME280;13413;52.336;21.200;2023-02-17T06:07:06;100541.73;;;8.23;66.83
25510;BME280;13413;52.336;21.200;2023-02-17T06:10:00;100540.29;;;8.25;66.81
25510;BME280;13413;52.336;21.200;2023-02-17T06:12:53;100545.58;;;8.27;66.86
25510;BME280;13413;52.336;21.200;2023-02-17T06:15:48;100544.25;;;8.26;66.92
25510;BME280;13413;52.336;21.200;2023-02-17T06:18:41;100545.63;;;8.26;66.92
25510;BME280;13413;52.336;21.200;2023-02-17T06:21:35;100545.33;;;8.28;67.06
25510;BME280;13413;52.336;21.200;2023-02-17T06:24:30;100548.29;;;8.28;67.07
25510;BME280;13413;52.336;21.200;2023-02-17T06:27:24;100544.60;;;8.30;67.13
25510;BME280;13413;52.336;21.200;2023-02-17T06:30:18;100538.86;;;8.31;67.34
25510;BME280;13413;52.336;21.200;2023-02-17T06:33:11;100539.20;;;8.31;67.39
25510;BME280;13413;52.336;21.200;2023-02-17T06:36:08;100541.16;;;8.32;67.40
25510;BME280;13413;52.336;21.200;2023-02-17T06:39:02;100538.77;;;8.32;67.41
25510;BME280;13413;52.336;21.200;2023-02-17T06:41:56;100544.89;;;8.37;67.41
25510;BME280;13413;52.336;21.200;2023-02-17T06:44:51;100545.37;;;8.41;67.33
25510;BME280;13413;52.336;21.200;2023-02-17T06:47:45;100534.15;;;8.44;67.31
25510;BME280;13413;52.336;21.200;2023-02-17T06:50:39;100533.26;;;8.43;67.46
25510;BME280;13413;52.336;21.200;2023-02-17T06:53:33;100541.06;;;8.46;67.62
25510;BME280;13413;52.336;21.200;2023-02-17T06:56:27;100538.89;;;8.46;67.52
25510;BME280;13413;52.336;21.200;2023-02-17T06:59:21;100536.00;;;8.50;67.43
25510;BME280;13413;52.336;21.200;2023-02-17T07:02:15;100535.61;;;8.52;67.52
25510;BME280;13413;52.336;21.200;2023-02-17T07:05:09;100531.55;;;8.51;67.73
25510;BME280;13413;52.336;21.200;2023-02-17T07:08:03;100526.23;;;8.51;67.83
25510;BME280;13413;52.336;21.200;2023-02-17T07:10:57;100519.99;;;8.55;67.72
25510;BME280;13413;52.336;21.200;2023-02-17T07:13:52;100520.14;;;8.57;67.73
25510;BME280;13413;52.336;21.200;2023-02-17T07:16:45;100517.36;;;8.58;67.92
25510;BME280;13413;52.336;21.200;2023-02-17T07:19:40;100516.74;;;8.59;67.88
25510;BME280;13413;52.336;21.200;2023-02-17T07:22:34;100511.59;;;8.60;67.86
25510;BME280;13413;52.336;21.200;2023-02-17T07:25:28;100517.23;;;8.65;67.77
25510;BME280;13413;52.336;21.200;2023-02-17T07:28:22;100515.85;;;8.68;67.75
25510;BME280;13413;52.336;21.200;2023-02-17T07:31:17;100516.86;;;8.71;67.71
25510;BME280;13413;52.336;21.200;2023-02-17T07:34:13;100513.04;;;8.76;67.59
25510;BME280;13413;52.336;21.200;2023-02-17T07:37:08;100512.50;;;8.84;67.50
25510;BME280;13413;52.336;21.200;2023-02-17T07:46:23;100516.38;;;8.98;67.13
25510;BME280;13413;52.336;21.200;2023-02-17T07:49:17;100518.77;;;9.02;67.10
25510;BME280;13413;52.336;21.200;2023-02-17T07:55:06;100516.05;;;9.12;66.71
25510;BME280;13413;52.336;21.200;2023-02-17T07:58:00;100515.30;;;9.12;66.25
25510;BME280;13413;52.336;21.200;2023-02-17T08:00:54;100512.09;;;9.11;65.76
25510;BME280;13413;52.336;21.200;2023-02-17T08:03:49;100506.14;;;9.17;65.94
25510;BME280;13413;52.336;21.200;2023-02-17T08:06:42;100504.35;;;9.17;65.93
25510;BME280;13413;52.336;21.200;2023-02-17T08:09:37;100505.63;;;9.19;65.64
25510;BME280;13413;52.336;21.200;2023-02-17T08:12:31;100506.22;;;9.22;65.64
25510;BME280;13413;52.336;21.200;2023-02-17T08:15:25;100506.98;;;9.26;65.43
25510;BME280;13413;52.336;21.200;2023-02-17T08:18:21;100500.00;;;9.27;65.22
25510;BME280;13413;52.336;21.200;2023-02-17T08:21:14;100501.48;;;9.32;65.15
25510;BME280;13413;52.336;21.200;2023-02-17T08:24:08;100498.91;;;9.32;64.82
25510;BME280;13413;52.336;21.200;2023-02-17T08:27:03;100490.80;;;9.36;64.76
25510;BME280;13413;52.336;21.200;2023-02-17T08:29:57;100490.77;;;9.33;64.45
25510;BME280;13413;52.336;21.200;2023-02-17T08:32:51;100488.54;;;9.35;64.44
25510;BME280;13413;52.336;21.200;2023-02-17T08:35:44;100488.66;;;9.34;64.25
25510;BME280;13413;52.336;21.200;2023-02-17T08:38:39;100488.90;;;9.37;64.30
25510;BME280;13413;52.336;21.200;2023-02-17T08:41:35;100489.41;;;9.39;63.87
25510;BME280;13413;52.336;21.200;2023-02-17T08:44:30;100487.21;;;9.44;63.86
25510;BME280;13413;52.336;21.200;2023-02-17T08:47:26;100481.16;;;9.45;63.65
25510;BME280;13413;52.336;21.200;2023-02-17T08:50:20;100478.52;;;9.48;63.56
25510;BME280;13413;52.336;21.200;2023-02-17T08:53:13;100482.45;;;9.52;63.60
25510;BME280;13413;52.336;21.200;2023-02-17T08:56:08;100481.52;;;9.56;63.55
25510;BME280;13413;52.336;21.200;2023-02-17T08:59:02;100473.32;;;9.58;63.44
25510;BME280;13413;52.336;21.200;2023-02-17T09:01:55;100473.02;;;9.63;63.58
25510;BME280;13413;52.336;21.200;2023-02-17T09:04:49;100471.94;;;9.63;63.11
25510;BME280;13413;52.336;21.200;2023-02-17T09:07:43;100463.67;;;9.58;63.18
25510;BME280;13413;52.336;21.200;2023-02-17T09:10:38;100466.13;;;9.61;62.96
25510;BME280;13413;52.336;21.200;2023-02-17T09:13:31;100467.59;;;9.65;63.26
25510;BME280;13413;52.336;21.200;2023-02-17T09:16:24;100461.05;;;9.68;63.21
25510;BME280;13413;52.336;21.200;2023-02-17T09:19:19;100456.63;;;9.72;63.23
25510;BME280;13413;52.336;21.200;2023-02-17T09:22:12;100453.96;;;9.73;63.20
25510;BME280;13413;52.336;21.200;2023-02-17T09:25:08;100456.09;;;9.79;62.97
25510;BME280;13413;52.336;21.200;2023-02-17T09:28:02;100451.98;;;9.82;62.91
25510;BME280;13413;52.336;21.200;2023-02-17T09:30:56;100450.85;;;9.85;62.82
25510;BME280;13413;52.336;21.200;2023-02-17T09:33:50;100451.93;;;9.87;62.78
25510;BME280;13413;52.336;21.200;2023-02-17T09:36:45;100441.85;;;9.92;62.96
25510;BME280;13413;52.336;21.200;2023-02-17T09:39:38;100438.17;;;9.97;62.65
25510;BME280;13413;52.336;21.200;2023-02-17T09:42:35;100440.42;;;9.95;62.53
25510;BME280;13413;52.336;21.200;2023-02-17T09:45:34;100436.14;;;10.01;62.73
25510;BME280;13413;52.336;21.200;2023-02-17T09:48:29;100429.98;;;9.95;62.62
25510;BME280;13413;52.336;21.200;2023-02-17T09:51:28;100424.16;;;9.95;62.98
25510;BME280;13413;52.336;21.200;2023-02-17T09:54:27;100418.62;;;9.85;63.11
25510;BME280;13413;52.336;21.200;2023-02-17T09:57:20;100419.23;;;9.80;64.04
25510;BME280;13413;52.336;21.200;2023-02-17T10:05:54;100421.89;;;9.70;64.49
25510;BME280;13413;52.336;21.200;2023-02-17T10:08:59;100417.44;;;9.62;64.79
25510;BME280;13413;52.336;21.200;2023-02-17T10:12:02;100408.94;;;9.56;64.74
25510;BME280;13413;52.336;21.200;2023-02-17T10:14:58;100408.82;;;9.52;64.96
25510;BME280;13413;52.336;21.200;2023-02-17T10:17:59;100407.09;;;9.50;65.07
25510;BME280;13413;52.336;21.200;2023-02-17T10:21:00;100399.73;;;9.53;65.05
25510;BME280;13413;52.336;21.200;2023-02-17T10:23:56;100397.45;;;9.53;65.30
25510;BME280;13413;52.336;21.200;2023-02-17T10:27:04;100398.25;;;9.51;65.37
25510;BME280;13413;52.336;21.200;2023-02-17T10:30:25;100394.93;;;9.50;65.35
25510;BME280;13413;52.336;21.200;2023-02-17T10:33:29;100395.38;;;9.51;65.36
25510;BME280;13413;52.336;21.200;2023-02-17T10:36:34;100393.39;;;9.50;65.56
25510;BME280;13413;52.336;21.200;2023-02-17T10:39:45;100387.10;;;9.49;65.73
25510;BME280;13413;52.336;21.200;2023-02-17T10:42:39;100382.08;;;9.50;65.91
25510;BME280;13413;52.336;21.200;2023-02-17T10:45:36;100379.42;;;9.52;65.99
25510;BME280;13413;52.336;21.200;2023-02-17T10:48:36;100371.54;;;9.54;66.01
25510;BME280;13413;52.336;21.200;2023-02-17T10:51:30;100361.92;;;9.58;65.92
25510;BME280;13413;52.336;21.200;2023-02-17T10:54:28;100354.45;;;9.59;66.08
25510;BME280;13413;52.336;21.200;2023-02-17T10:57:29;100344.05;;;9.58;66.08
25510;BME280;13413;52.336;21.200;2023-02-17T11:00:25;100339.94;;;9.64;66.04
25510;BME280;13413;52.336;21.200;2023-02-17T11:03:24;100337.87;;;9.65;66.21
25510;BME280;13413;52.336;21.200;2023-02-17T11:06:20;100332.81;;;9.67;66.19
25510;BME280;13413;52.336;21.200;2023-02-17T11:09:20;100328.42;;;9.72;66.07
25510;BME280;13413;52.336;21.200;2023-02-17T11:12:17;100319.14;;;9.74;66.25
25510;BME280;13413;52.336;21.200;2023-02-17T11:15:18;100310.52;;;9.77;66.31
25510;BME280;13413;52.336;21.200;2023-02-17T11:18:19;100303.66;;;9.80;66.38
25510;BME280;13413;52.336;21.200;2023-02-17T11:21:13;100295.80;;;9.84;66.18
25510;BME280;13413;52.336;21.200;2023-02-17T11:24:11;100286.49;;;9.85;66.01
25510;BME280;13413;52.336;21.200;2023-02-17T11:27:08;100281.91;;;9.88;66.25
25510;BME280;13413;52.336;21.200;2023-02-17T11:30:13;100275.54;;;9.85;66.41
25510;BME280;13413;52.336;21.200;2023-02-17T11:33:19;100262.11;;;9.88;66.39
25510;BME280;13413;52.336;21.200;2023-02-17T11:36:23;100256.58;;;9.95;66.31
25510;BME280;13413;52.336;21.200;2023-02-17T11:39:21;100247.20;;;10.06;66.18
25510;BME280;13413;52.336;21.200;2023-02-17T11:42:22;100236.19;;;10.09;66.08
25510;BME280;13413;52.336;21.200;2023-02-17T11:45:18;100227.11;;;10.10;66.10
25510;BME280;13413;52.336;21.200;2023-02-17T11:48:30;100220.41;;;10.10;66.13
25510;BME280;13413;52.336;21.200;2023-02-17T11:51:33;100216.64;;;10.10;66.17
25510;BME280;13413;52.336;21.200;2023-02-17T11:54:35;100213.88;;;10.15;66.20
25510;BME280;13413;52.336;21.200;2023-02-17T11:57:38;100210.40;;;10.13;66.55
25510;BME280;13413;52.336;21.200;2023-02-17T12:00:40;100202.14;;;10.17;66.40
25510;BME280;13413;52.336;21.200;2023-02-17T12:03:53;100194.54;;;10.23;66.37
25510;BME280;13413;52.336;21.200;2023-02-17T12:07:04;100185.27;;;10.17;66.72
25510;BME280;13413;52.336;21.200;2023-02-17T12:10:08;100185.04;;;10.18;66.75
25510;BME280;13413;52.336;21.200;2023-02-17T12:13:14;100182.25;;;10.19;66.69
25510;BME280;13413;52.336;21.200;2023-02-17T12:16:16;100170.95;;;10.11;66.73
25510;BME280;13413;52.336;21.200;2023-02-17T12:25:05;100152.51;;;10.17;67.10
25510;BME280;13413;52.336;21.200;2023-02-17T12:28:26;100144.99;;;10.13;67.15
25510;BME280;13413;52.336;21.200;2023-02-17T12:31:49;100133.25;;;10.12;67.25
25510;BME280;13413;52.336;21.200;2023-02-17T12:34:52;100122.13;;;10.15;67.39
25510;BME280;13413;52.336;21.200;2023-02-17T12:37:54;100106.47;;;10.08;67.59
25510;BME280;13413;52.336;21.200;2023-02-17T12:40:54;100100.00;;;10.11;67.68
25510;BME280;13413;52.336;21.200;2023-02-17T12:43:54;100099.84;;;10.15;67.76
25510;BME280;13413;52.336;21.200;2023-02-17T12:46:52;100098.80;;;10.21;67.66
25510;BME280;13413;52.336;21.200;2023-02-17T12:49:51;100091.74;;;10.24;67.45
25510;BME280;13413;52.336;21.200;2023-02-17T12:52:51;100091.73;;;10.26;67.69
25510;BME280;13413;52.336;21.200;2023-02-17T12:55:52;100086.48;;;10.28;67.63
25510;BME280;13413;52.336;21.200;2023-02-17T12:58:48;100091.45;;;10.28;67.61
25510;BME280;13413;52.336;21.200;2023-02-17T13:01:49;100089.36;;;10.31;67.76
25510;BME280;13413;52.336;21.200;2023-02-17T13:04:46;100081.48;;;10.24;67.91
25510;BME280;13413;52.336;21.200;2023-02-17T13:07:46;100073.39;;;10.25;68.00
25510;BME280;13413;52.336;21.200;2023-02-17T13:10:41;100072.66;;;10.24;68.10
25510;BME280;13413;52.336;21.200;2023-02-17T13:13:35;100067.29;;;10.25;68.12
25510;BME280;13413;52.336;21.200;2023-02-17T13:16:29;100058.39;;;10.29;68.01
25510;BME280;13413;52.336;21.200;2023-02-17T13:19:35;100052.63;;;10.31;68.00
25510;BME280;13413;52.336;21.200;2023-02-17T13:22:29;100052.40;;;10.34;68.09
25510;BME280;13413;52.336;21.200;2023-02-17T13:25:31;100042.92;;;10.31;68.06
25510;BME280;13413;52.336;21.200;2023-02-17T13:28:42;100044.17;;;10.32;68.22
25510;BME280;13413;52.336;21.200;2023-02-17T13:31:47;100039.21;;;10.36;68.12
25510;BME280;13413;52.336;21.200;2023-02-17T13:34:43;100041.00;;;10.36;68.31
25510;BME280;13413;52.336;21.200;2023-02-17T13:37:42;100041.98;;;10.37;68.49
25510;BME280;13413;52.336;21.200;2023-02-17T13:40:38;100037.58;;;10.41;68.37
25510;BME280;13413;52.336;21.200;2023-02-17T13:43:40;100026.85;;;10.44;68.42
25510;BME280;13413;52.336;21.200;2023-02-17T13:46:37;100021.89;;;10.45;68.47
25510;BME280;13413;52.336;21.200;2023-02-17T13:49:33;100016.63;;;10.38;68.73
25510;BME280;13413;52.336;21.200;2023-02-17T13:52:29;100016.69;;;10.39;69.11
25510;BME280;13413;52.336;21.200;2023-02-17T13:55:24;100011.27;;;10.41;68.86
25510;BME280;13413;52.336;21.200;2023-02-17T13:58:23;100002.67;;;10.43;68.89
25510;BME280;13413;52.336;21.200;2023-02-17T14:01:19;99998.23;;;10.44;69.10
25510;BME280;13413;52.336;21.200;2023-02-17T14:04:21;99993.61;;;10.39;69.32
25510;BME280;13413;52.336;21.200;2023-02-17T14:07:15;99990.23;;;10.40;69.49
25510;BME280;13413;52.336;21.200;2023-02-17T14:13:13;99986.06;;;10.42;69.63
25510;BME280;13413;52.336;21.200;2023-02-17T14:16:20;99980.21;;;10.41;69.80
25510;BME280;13413;52.336;21.200;2023-02-17T14:19:19;99973.42;;;10.40;69.85
25510;BME280;13413;52.336;21.200;2023-02-17T14:22:26;99965.66;;;10.41;69.72
25510;BME280;13413;52.336;21.200;2023-02-17T14:25:28;99953.38;;;10.40;70.03
25510;BME280;13413;52.336;21.200;2023-02-17T14:28:24;99940.88;;;10.46;70.06
25510;BME280;13413;52.336;21.200;2023-02-17T14:31:21;99935.97;;;10.45;70.16
25510;BME280;13413;52.336;21.200;2023-02-17T14:34:25;99928.19;;;10.38;70.52
25510;BME280;13413;52.336;21.200;2023-02-17T14:37:22;99910.89;;;10.38;70.65
25510;BME280;13413;52.336;21.200;2023-02-17T14:45:29;99892.63;;;10.47;70.62
25510;BME280;13413;52.336;21.200;2023-02-17T14:48:23;99880.31;;;10.51;70.38
25510;BME280;13413;52.336;21.200;2023-02-17T14:51:19;99871.65;;;10.42;70.82
25510;BME280;13413;52.336;21.200;2023-02-17T14:54:15;99864.61;;;10.46;70.90
25510;BME280;13413;52.336;21.200;2023-02-17T14:57:13;99856.83;;;10.44;70.99
25510;BME280;13413;52.336;21.200;2023-02-17T15:00:12;99846.48;;;10.44;71.05
25510;BME280;13413;52.336;21.200;2023-02-17T15:03:06;99841.29;;;10.41;71.30
25510;BME280;13413;52.336;21.200;2023-02-17T15:06:15;99842.79;;;10.47;71.06
25510;BME280;13413;52.336;21.200;2023-02-17T15:09:12;99833.50;;;10.49;71.13
25510;BME280;13413;52.336;21.200;2023-02-17T15:12:12;99827.80;;;10.50;71.07
25510;BME280;13413;52.336;21.200;2023-02-17T15:15:08;99825.80;;;10.53;70.94
25510;BME280;13413;52.336;21.200;2023-02-17T15:18:02;99820.59;;;10.54;70.95
25510;BME280;13413;52.336;21.200;2023-02-17T15:20:57;99819.59;;;10.56;71.15
25510;BME280;13413;52.336;21.200;2023-02-17T15:23:51;99810.02;;;10.59;70.94
25510;BME280;13413;52.336;21.200;2023-02-17T15:26:45;99803.20;;;10.58;71.03
25510;BME280;13413;52.336;21.200;2023-02-17T15:29:39;99792.80;;;10.58;71.07
25510;BME280;13413;52.336;21.200;2023-02-17T15:32:35;99790.50;;;10.60;70.93
25510;BME280;13413;52.336;21.200;2023-02-17T15:35:29;99790.24;;;10.50;71.45
25510;BME280;13413;52.336;21.200;2023-02-17T15:38:24;99779.89;;;10.55;71.33
25510;BME280;13413;52.336;21.200;2023-02-17T15:41:20;99778.48;;;10.58;71.19
25510;BME280;13413;52.336;21.200;2023-02-17T15:44:18;99769.42;;;10.62;70.98
25510;BME280;13413;52.336;21.200;2023-02-17T15:47:15;99764.67;;;10.59;71.18
25510;BME280;13413;52.336;21.200;2023-02-17T15:50:15;99752.79;;;10.63;70.99
25510;BME280;13413;52.336;21.200;2023-02-17T15:53:10;99746.61;;;10.62;71.09
25510;BME280;13413;52.336;21.200;2023-02-17T15:56:11;99736.30;;;10.53;71.53
25510;BME280;13413;52.336;21.200;2023-02-17T15:59:11;99734.14;;;10.59;71.31
25510;BME280;13413;52.336;21.200;2023-02-17T16:02:16;99728.89;;;10.59;71.38
25510;BME280;13413;52.336;21.200;2023-02-17T16:05:12;99724.52;;;10.64;71.19
25510;BME280;13413;52.336;21.200;2023-02-17T16:08:05;99723.58;;;10.64;71.12
25510;BME280;13413;52.336;21.200;2023-02-17T16:10:58;99712.59;;;10.62;71.32
25510;BME280;13413;52.336;21.200;2023-02-17T16:13:52;99709.48;;;10.60;71.38
25510;BME280;13413;52.336;21.200;2023-02-17T16:16:46;99704.36;;;10.58;71.50
25510;BME280;13413;52.336;21.200;2023-02-17T16:19:40;99701.99;;;10.53;71.69
25510;BME280;13413;52.336;21.200;2023-02-17T16:22:34;99698.08;;;10.58;71.50
25510;BME280;13413;52.336;21.200;2023-02-17T16:25:29;99690.39;;;10.61;71.43